Seaspan Corp (SSW) Latest Bloomsberg Price


Mffais Ranking #1714 Overall / #17 Industry
Industry: Marine Shipping

Number of Companies: 66 (Ranking #2055 Overall/#12 Industry)
Inflow: $ 3,030 (K) (Ranking #2334 Overall/#17 Industry)
Outflow: $ -8,492 (K)
Mffais Flow: $ -5,461 (K) (Ranking #1714 Overall/#17 Industry)


Receive a FREE weekly executive review of stocks moving into the top 10, taking the top industy spot or moving up within their industry. Sent directly to your Inbox every Saturday. Sign up today and get last week's review immediately sent to you.

We value and respect your privacy. Please read our Terms and Conditions which states our firm commitment to your privacy. Your email address will not be shared with a third party, nor will it be sold or used for purposes other than subscription for the weekly review.

Owner CPOR Shares Action Qty Chg Invested (K) Total Current Value (K)
Guggenheim Capital Llc 2016-09-30 222,109 Added More 54,319 $ 796 $ 3,256
Princeton Alpha Management Lp 2016-09-30 29,642 New Holding 29,642 $ 434 $ 434
Dynamic Technology Lab Private Ltd 2016-09-30 34,077 Added More 21,385 $ 313 $ 499
Northern Trust Corp 2016-09-30 139,459 Added More 21,100 $ 309 $ 2,044
Timber Hill Llc 2016-09-30 47,808 Added More 17,958 $ 263 $ 700
Invictus Rg 2016-09-30 16,022 New Holding 16,022 $ 234 $ 234
Dividend Assets Capital Llc 2016-09-30 13,735 New Holding 13,735 $ 201 $ 201
Global X Management Co Llc 2016-09-30 558,108 Added More 8,500 $ 124 $ 8,181
First Allied Advisory Services Inc 2016-09-30 15,643 Added More 5,187 $ 76 $ 229
Cubist Systematic Strategies Llc 2016-09-30 25,112 Added More 2,902 $ 42 $ 368
Tiaa Cref Trust Co Fsb Mo 2016-09-30 45,272 Added More 2,673 $ 39 $ 663
Cibc World Markets Inc 2016-09-30 48,741 Added More 2,626 $ 38 $ 714
Advisor Group Inc 2016-09-30 4,880 Added More 2,408 $ 35 $ 71
Quantbot Technologies Lp 2016-09-30 1,700 New Holding 1,700 $ 24 $ 24
Msi Financial Services Inc 2016-09-30 1,811 Added More 1,598 $ 23 $ 26
Pacad Investment Ltd 2016-09-30 1,400 New Holding 1,400 $ 20 $ 20
Next Financial Group Inc 2016-09-30 2,477 Added More 1,377 $ 20 $ 36
Capstone Investment Advisors Llc 2016-09-30 15,100 Added More 1,249 $ 18 $ 221
Tortoise Capital Advisors L L C 2016-09-30 400 New Holding 400 $ 5 $ 5
Horizon Kinetics Llc 2016-09-30 29,929 Added More 367 $ 5 $ 438
Sei Investments Co 2016-09-30 100 New Holding 100 $ 1 $ 1
Hightower Advisors Llc 2016-09-30 10,121 Added More 56 $ 0 $ 148
Creative Planning 2016-09-30 4,500 Added More 35 $ 0 $ 65
Cwm Llc 2016-09-30 222 Added More 6 $ 0 $ 3
Feltz Wealth Plan Inc 2016-09-30 200 No Change 0 $ 0 $ 2
Blackrock Inc 2016-09-30 8,390 No Change 0 $ 0 $ 122
Alphamark Advisors Llc 2016-09-30 48,224 No Change 0 $ 0 $ 706
Staley Capital Advisers Inc 2016-09-30 45,000 No Change 0 $ 0 $ 659
Moody National Bank Trust Division 2016-09-30 18,600 No Change 0 $ 0 $ 272
Johnson Financial Group Inc 2016-09-30 2,000 No Change 0 $ 0 $ 29
Integrated Wealth Management 2016-09-30 1,000 No Change 0 $ 0 $ 14
Pnc Financial Services Group Inc 2016-09-30 5,000 No Change 0 $ 0 $ 73
Bank Of The West 2016-09-30 26,965 No Change 0 $ 0 $ 395
Allsquare Wealth Management Llc 2016-09-30 5,500 No Change 0 $ 0 $ 80
American National Registered Investment Advisor Inc 2016-09-30 21,600 No Change 0 $ 0 $ 316
Shelton Capital Management 2016-09-30 25,000 No Change 0 $ 0 $ 366
Emerald Acquisition Ltd 2016-09-30 6,014 No Change 0 $ 0 $ 88
Howe Rusling Inc 2016-09-30 120 No Change 0 $ 0 $ 1
First Manhattan Co 2016-09-30 58,000 No Change 0 $ 0 $ 850
Telemus Capital Llc 2016-09-30 19,000 No Change 0 $ 0 $ 278
Investors Asset Management Of Georgia Inc Ga Adv 2016-09-30 12,050 Sold Some -27 $ -0 $ 176
Ladenburg Thalmann Financial Services Inc 2016-09-30 5,570 Sold Some -76 $ -1 $ 81
Hanson Mcclain Inc 2016-06-30 0 Sold All -88 $ -1 $ 0
Envestnet Asset Management Inc 2016-09-30 1,000 Sold Some -163 $ -2 $ 14
M T Bank Corp 2016-09-30 17,388 Sold Some -300 $ -4 $ 254
Ifp Advisors Inc 2016-09-30 729 Sold Some -407 $ -5 $ 10
Tower Research Capital Llc Trc 2016-09-30 0 Sold All -483 $ -7 $ 0
Us Bancorp De 2016-09-30 3,361 Sold Some -807 $ -11 $ 49
Globeflex Capital L P 2016-09-30 0 Sold All -867 $ -12 $ 0
Creegan Nassoura Financial Group Llc 2016-09-30 32,096 Sold Some -1,150 $ -16 $ 470
Advisors Asset Management Inc 2016-09-30 31,104 Sold Some -1,790 $ -26 $ 455
Cutler Group Lp 2016-09-30 47,174 Sold Some -3,406 $ -49 $ 691
Sonora Investment Management Llc 2016-09-30 260,803 Sold Some -4,356 $ -63 $ 3,823
Airain Ltd 2016-09-30 12,167 Sold Some -5,080 $ -74 $ 178
Raymond James Associates 2016-09-30 24,138 Sold Some -6,962 $ -102 $ 353
Simplex Trading Llc 2016-09-30 0 Sold All -8,026 $ -117 $ 0
Stifel Financial Corp 2016-09-30 0 Sold All -11,826 $ -173 $ 0
Parametric Portfolio Associates Llc 2016-09-30 0 Sold All -14,567 $ -213 $ 0
Group One Trading L P 2016-09-30 47,748 Sold Some -26,421 $ -387 $ 699
Midas Management Corp 2016-09-30 0 Sold All -45,875 $ -672 $ 0
Kcg Holdings Inc 2016-09-30 0 Sold All -55,781 $ -817 $ 0
Glg Partners Lp 2016-09-30 0 Sold All -64,418 $ -944 $ 0
Walleye Trading Llc 2016-09-30 1,300 Sold Some -70,100 $ -1,027 $ 19
Lombard Odier Asset Management Usa Corp 2016-09-30 0 Sold All -73,398 $ -1,076 $ 0
Spot Trading L L C 2016-09-30 25,666 Sold Some -76,579 $ -1,122 $ 376
Fairview Capital Investment Management Llc 2016-09-30 4,432,465 Sold Some -106,323 $ -1,558 $ 64,979